首页
METAR-TAF:

METAR-TAF

机场 :

Burlington-Alamance Regional Airport

伯灵顿, 北卡罗来纳州, 美国

纬度: 36-02-52N, 经度: 079-28-26W, 海拔: 188米

当前天气观测

该预报发布于38分钟前的11:54 UTC
风速4节,风向东北
温度 24°C
湿度 78%
气压 1012 hPa
能見度: 16.1公里
天空无云

METAR: KBUY 131154Z AUTO 04004KT 10SM CLR 24/20 A2987 RMK AO2 SLP106 T02440200 10244 20211 51013

时间: 08:32 (12:32 UTC)


TAF: 丢失

超过4000个机场的气象观测和天气预报(METAR&TAF报告)。

可查询的气象台以黄色和红色小点在地图上表示。

将鼠标移到小点上方,可查看气象台名称。

然后点击查看天气观测和预报。

如需切换地图:点击带黑十字的绿色按钮放大地图;点击带横线的绿色按钮缩小地图;或者点击绿色箭头查看邻近地区的地图。


METAR-TAF: